M I D A S
Marine Information and Data Acquisition System
Tripno 707 of the Zeeleeuw from 2004-05-04 07:46:19 to 2004-05-04 12:57:40
Back to CruiseResearch ActivitiesStationsMapUnderway DataData graphs

EquipmentUnitsComments
TimeDGPSUTC
LatitudeDGPSDM.mWGS84
LongitudeDGPSDM.mWGS84
SpeedMeteo Stationm/sRelative wind speed
DirectionMeteo StationdegRelative wind direction
TemperatureMeteo Stationdeg CelciusAir temperature
PressureMeteo StationPaAtmospheric pressure
HumidityMeteo Station%Relative humidity
Missing or incorrect values are displayed as -999
Metereological data collected by the RV Zeeleeuw from 2004-05-04 07:46:19 to 2004-05-04 12:57:40
Time Latitude Longitude Speed Direction Temperature Pressure Humidity
2004-05-04 07:47 51°18.039 2°41.621 16.8 304 9.4 99100 84
2004-05-04 07:48 51°18.063 2°41.231 15 310 9.4 99100 84
2004-05-04 07:49 51°18.089 2°40.83 15.6 311 9.5 99080 84
2004-05-04 07:50 51°18.122 2°40.45 16.5 314 9.5 99090 84
2004-05-04 07:51 51°18.157 2°40.059 16.6 305 9.5 99080 84
2004-05-04 07:52 51°18.195 2°39.676 14.7 312 9.6 99090 83
2004-05-04 07:53 51°18.229 2°39.303 15.5 306 9.6 99080 84
2004-05-04 07:54 51°18.263 2°38.924 18.8 312 9.6 99070 83
2004-05-04 07:55 51°18.297 2°38.54 18.7 310 9.6 99070 82
2004-05-04 07:56 51°18.326 2°38.16 17.2 306 9.7 99050 82
2004-05-04 07:57 51°18.354 2°37.785 17.8 312 9.7 99060 82
2004-05-04 07:58 51°18.383 2°37.401 15.7 312 9.7 99060 82
2004-05-04 07:59 51°18.413 2°37.007 17.5 314 9.7 99050 82
2004-05-04 08:00 51°18.445 2°36.619 14.9 304 9.8 99050 83
2004-05-04 08:01 51°18.476 2°36.228 18.3 308 9.7 99040 82
2004-05-04 08:02 51°18.462 2°35.845 19.3 320 9.7 99030 81
2004-05-04 08:03 51°18.407 2°35.455 17.2 325 9.7 99020 81
2004-05-04 08:04 51°18.354 2°35.071 17.6 325 9.8 99020 81
2004-05-04 08:05 51°18.303 2°34.689 18.8 319 9.7 99040 80
2004-05-04 08:06 51°18.251 2°34.296 18.1 323 9.8 99010 80
2004-05-04 08:07 51°18.226 2°33.918 19 320 9.8 99000 81
2004-05-04 08:08 51°18.215 2°33.516 19 319 9.8 99000 80
2004-05-04 08:09 51°18.203 2°33.128 17.1 317 9.8 99010 80
2004-05-04 08:10 51°18.192 2°32.742 19.5 314 9.8 98990 80
2004-05-04 08:11 51°18.179 2°32.36 18.2 315 9.8 98990 80
2004-05-04 08:12 51°18.127 2°31.988 19.3 331 9.8 98990 80
2004-05-04 08:13 51°18.023 2°31.636 19.6 331 9.9 99000 80
2004-05-04 08:14 51°17.922 2°31.286 19.6 337 9.8 98990 80
2004-05-04 08:15 51°17.819 2°30.923 20.1 334 9.8 98990 80
2004-05-04 08:16 51°17.718 2°30.57 22.1 335 9.8 98980 81
2004-05-04 08:17 51°17.616 2°30.204 21 330 9.8 98980 81
2004-05-04 08:18 51°17.514 2°29.844 19.7 335 9.7 98980 80
2004-05-04 08:19 51°17.4 2°29.492 18.7 338 9.7 98970 80
2004-05-04 08:20 51°17.283 2°29.14 20.4 331 9.7 98960 80
2004-05-04 08:21 51°17.167 2°28.787 20.1 334 9.7 98970 80
2004-05-04 08:22 51°17.074 2°28.5 17.6 329 9.8 98990 80
2004-05-04 08:23 51°16.995 2°28.285 15.8 337 9.7 99000 80
2004-05-04 08:24 51°16.923 2°28.14 15.7 333 9.8 99000 80
2004-05-04 08:25 51°16.863 2°27.986 15.4 330 9.8 99000 80
2004-05-04 08:26 51°16.8 2°27.85 15.6 327 9.7 98990 80
2004-05-04 08:27 51°16.741 2°27.717 13 342 9.7 98980 80
2004-05-04 08:28 51°16.676 2°27.628 13.6 340 9.7 98970 80
2004-05-04 08:29 51°16.649 2°27.519 11.7 297 9.7 98970 80
2004-05-04 08:30 51°16.643 2°27.362 11.7 282 9.7 98970 81
2004-05-04 08:31 51°16.641 2°27.302 8.1 257 9.8 98990 82
2004-05-04 08:32 51°16.642 2°27.284 12.2 242 9.8 99000 82
2004-05-04 08:33 51°16.645 2°27.263 8.3 251 9.8 98990 81
2004-05-04 08:34 51°16.65 2°27.241 10.5 251 9.8 98990 82
2004-05-04 08:35 51°16.664 2°27.208 11.9 243 9.7 98980 80
2004-05-04 08:36 51°16.689 2°27.164 11.4 226 9.6 98970 81
2004-05-04 08:37 51°16.74 2°27.188 11.8 132 9.6 98990 81
2004-05-04 08:38 51°16.716 2°27.276 14.5 51 9.6 98960 83
2004-05-04 08:39 51°16.637 2°27.313 15.4 45 9.5 98950 82
2004-05-04 08:40 51°16.542 2°27.37 15.8 35 9.5 98950 82
2004-05-04 08:41 51°16.387 2°27.379 19.1 21 9.5 98940 82
2004-05-04 08:42 51°16.175 2°27.338 19.9 16 9.5 98930 82
2004-05-04 08:43 51°15.939 2°27.272 20.3 12 9.5 98930 82
2004-05-04 08:44 51°15.708 2°27.196 22.2 23 9.4 98920 82
2004-05-04 08:45 51°15.477 2°27.125 19.6 18 9.4 98910 81
2004-05-04 08:46 51°15.247 2°27.061 20.8 17 9.3 98930 82
2004-05-04 08:47 51°15.011 2°26.982 21.7 9 9.4 98940 82
2004-05-04 08:48 51°14.781 2°26.894 22.1 8 9.5 98930 81
2004-05-04 08:49 51°14.549 2°26.805 18.4 10 9.5 98940 81
2004-05-04 08:50 51°14.318 2°26.721 19.1 12 9.5 98940 81
2004-05-04 08:51 51°14.087 2°26.637 20.9 17 9.6 98930 81
2004-05-04 08:52 51°13.856 2°26.553 21.4 16 9.6 98930 81
2004-05-04 08:53 51°13.628 2°26.471 23.9 22 9.7 98940 80
2004-05-04 08:54 51°13.395 2°26.39 19.8 18 9.7 98900 78
2004-05-04 08:55 51°13.166 2°26.31 21.3 13 9.6 98920 79
2004-05-04 08:56 51°12.937 2°26.23 21.1 17 9.6 98930 79
2004-05-04 08:57 51°12.711 2°26.151 20.9 12 9.6 98940 80
2004-05-04 08:58 51°12.482 2°26.072 17.9 10 9.6 98940 80
2004-05-04 08:59 51°12.25 2°25.995 17.6 14 9.6 98930 80
2004-05-04 09:00 51°12.024 2°25.924 20.6 21 9.6 98920 79
2004-05-04 09:01 51°11.8 2°25.857 18.8 12 9.6 98910 79
2004-05-04 09:02 51°11.575 2°25.79 19.8 14 9.6 98910 78
2004-05-04 09:03 51°11.352 2°25.729 20.8 12 9.5 98950 75
2004-05-04 09:04 51°11.11 2°25.764 21.4 37 9.6 98900 76
2004-05-04 09:05 51°10.937 2°25.998 17.6 48 9.6 98890 75
2004-05-04 09:06 51°10.867 2°26.345 15.2 83 9.4 98910 73
2004-05-04 09:07 51°10.898 2°26.713 12.4 97 9.5 98920 75
2004-05-04 09:08 51°10.943 2°27.08 11.7 84 9.4 98920 77
2004-05-04 09:09 51°10.992 2°27.437 11.8 105 9.4 98920 78
2004-05-04 09:10 51°11.04 2°27.785 13.7 116 9.4 98920 76
2004-05-04 09:11 51°11.082 2°28.145 12.3 106 9.4 98920 77
2004-05-04 09:12 51°11.115 2°28.508 17.8 82 9.4 98920 77
2004-05-04 09:13 51°11.138 2°28.872 10.4 113 9.3 98920 73
2004-05-04 09:14 51°11.16 2°29.244 11.6 100 9.3 98920 73
2004-05-04 09:15 51°11.183 2°29.61 12.9 88 9.3 98920 74
2004-05-04 09:16 51°11.161 2°29.978 11.3 80 9.4 98900 76
2004-05-04 09:17 51°11.072 2°30.345 11.6 78 9.4 98900 77
2004-05-04 09:18 51°10.953 2°30.663 14.6 73 9.5 98880 78
2004-05-04 09:19 51°10.825 2°30.93 11.2 73 9.5 98890 79
2004-05-04 09:20 51°10.753 2°31.096 16.1 89 9.4 98920 79
2004-05-04 09:21 51°10.734 2°31.274 12.9 105 9.3 98930 76
2004-05-04 09:22 51°10.708 2°31.443 14.5 105 9.4 98930 75
2004-05-04 09:23 51°10.706 2°31.573 14.2 110 9.4 98940 77
2004-05-04 09:24 51°10.712 2°31.624 15.8 121 9.4 98930 76
2004-05-04 09:25 51°10.728 2°31.638 16.5 124 9.3 98920 74
2004-05-04 09:26 51°10.742 2°31.673 18.4 127 9.3 98900 72
2004-05-04 09:27 51°10.752 2°31.714 13.1 115 9.3 98920 70
2004-05-04 09:28 51°10.76 2°31.756 16.2 99 9.4 98930 74
2004-05-04 09:29 51°10.769 2°31.802 17.1 101 9.4 98920 74
2004-05-04 09:30 51°10.779 2°31.848 13.6 94 9.4 98910 74
2004-05-04 09:31 51°10.788 2°31.896 15.9 87 9.3 98910 71
2004-05-04 09:32 51°10.798 2°31.943 13.3 94 9.4 98920 76
2004-05-04 09:33 51°10.81 2°31.991 13.2 109 9.4 98910 76
2004-05-04 09:34 51°10.819 2°32.042 11.9 102 9.3 98910 70
2004-05-04 09:35 51°10.827 2°32.094 11.4 100 9.4 98900 73
2004-05-04 09:36 51°10.833 2°32.148 13.2 89 9.4 98900 73
2004-05-04 09:37 51°10.834 2°32.224 14.7 112 9.4 98910 73
2004-05-04 09:38 51°10.863 2°32.365 11.5 179 9.3 98910 71
2004-05-04 09:39 51°10.952 2°32.421 11.2 242 9.3 98940 68
2004-05-04 09:40 51°10.99 2°32.44 11.7 270 9.4 98910 72
2004-05-04 09:41 51°11.009 2°32.469 13.6 264 9.5 98920 74
2004-05-04 09:42 51°11.028 2°32.508 17.4 277 9.4 98930 72
2004-05-04 09:43 51°11.045 2°32.547 13.1 262 9.4 98910 71
2004-05-04 09:44 51°11.063 2°32.589 12.4 259 9.4 98910 71
2004-05-04 09:45 51°11.081 2°32.631 17.1 264 9.3 98900 70
2004-05-04 09:46 51°11.103 2°32.666 16 266 9.3 98890 71
2004-05-04 09:47 51°11.12 2°32.664 17.4 43 9.3 98880 71
2004-05-04 09:48 51°11.116 2°32.644 16.8 318 9.3 98880 71
2004-05-04 09:49 51°11.098 2°32.609 16.1 335 9.4 98860 73
2004-05-04 09:50 51°11.083 2°32.57 16.4 318 9.3 98840 69
2004-05-04 09:51 51°11.068 2°32.529 16.6 331 9.2 98840 69
2004-05-04 09:52 51°11.044 2°32.494 15.7 326 9.2 98840 69
2004-05-04 09:53 51°11.019 2°32.455 11.8 339 9.2 98850 72
2004-05-04 09:54 51°10.994 2°32.412 15.3 333 9.2 98850 73
2004-05-04 09:55 51°10.965 2°32.382 15.7 339 9.2 98850 74
2004-05-04 09:56 51°10.932 2°32.358 14.9 352 9.2 98850 73
2004-05-04 09:57 51°10.9 2°32.325 15.6 342 9.2 98840 74
2004-05-04 09:58 51°10.875 2°32.29 13.3 348 9.1 98830 75
2004-05-04 09:59 51°10.849 2°32.256 13.3 342 9.1 98840 77
2004-05-04 10:00 51°10.823 2°32.219 16.5 340 9.2 98850 78
2004-05-04 10:01 51°10.804 2°32.181 16.6 329 9 98830 72
2004-05-04 10:02 51°10.785 2°32.141 14.3 334 9 98830 74
2004-05-04 10:03 51°10.764 2°32.106 16.9 329 9.1 98830 76
2004-05-04 10:04 51°10.746 2°32.067 13.6 338 9.1 98810 75
2004-05-04 10:05 51°10.724 2°32.03 12.4 343 9.2 98830 76
2004-05-04 10:06 51°10.702 2°31.994 13.2 336 9.2 98820 77
2004-05-04 10:07 51°10.684 2°31.954 15.5 322 9.1 98810 75
2004-05-04 10:08 51°10.669 2°31.913 16.4 325 9.1 98790 76
2004-05-04 10:09 51°10.662 2°31.865 17 228 9.1 98800 75
2004-05-04 10:10 51°10.678 2°31.809 14.3 289 9.1 98800 77
2004-05-04 10:11 51°10.705 2°31.77 15.1 295 9.1 98800 77
2004-05-04 10:12 51°10.731 2°31.769 14.3 292 9.2 98800 78
2004-05-04 10:13 51°10.757 2°31.788 13.6 288 9.1 98790 77
2004-05-04 10:14 51°10.783 2°31.82 16.6 275 9.2 98810 78
2004-05-04 10:15 51°10.824 2°31.825 13.5 239 9.1 98810 77
2004-05-04 10:16 51°10.903 2°31.871 14.5 167 9.1 98830 77
2004-05-04 10:17 51°10.983 2°31.985 14.6 146 9.1 98810 73
2004-05-04 10:18 51°11.035 2°32.111 12.6 131 9 98810 73
2004-05-04 10:19 51°11.069 2°32.23 15.4 127 9 98790 75
2004-05-04 10:20 51°11.099 2°32.34 15.4 128 9 98790 75
2004-05-04 10:21 51°11.131 2°32.443 11.5 134 9 98800 76
2004-05-04 10:22 51°11.165 2°32.538 13.7 136 9.1 98800 77
2004-05-04 10:23 51°11.204 2°32.626 11.9 160 9.1 98810 78
2004-05-04 10:24 51°11.253 2°32.713 11 172 9.1 98810 75
2004-05-04 10:25 51°11.304 2°32.788 9.3 180 9 98820 76
2004-05-04 10:26 51°11.359 2°32.848 10.2 207 9.1 98810 75
2004-05-04 10:27 51°11.414 2°32.896 13.4 215 9 98800 74
2004-05-04 10:28 51°11.471 2°32.935 10.7 229 9 98800 75
2004-05-04 10:29 51°11.526 2°32.976 12 209 8.8 98790 75
2004-05-04 10:30 51°11.58 2°33.024 9.2 196 9 98800 77
2004-05-04 10:31 51°11.634 2°33.091 10.7 181 9.1 98810 74
2004-05-04 10:32 51°11.691 2°33.155 10.3 208 9 98800 74
2004-05-04 10:33 51°11.749 2°33.213 7.9 190 9.1 98810 75
2004-05-04 10:34 51°11.804 2°33.281 8.9 183 9.2 98800 77
2004-05-04 10:35 51°11.857 2°33.362 13.4 163 9.1 98800 76
2004-05-04 10:36 51°11.904 2°33.451 13.6 137 9.1 98780 78
2004-05-04 10:37 51°11.942 2°33.54 14.2 132 9.1 98760 78
2004-05-04 10:38 51°11.976 2°33.628 14.7 132 9 98760 77
2004-05-04 10:39 51°12.008 2°33.719 13.8 133 9 98760 77
2004-05-04 10:40 51°12.037 2°33.807 11.9 114 9.1 98760 79
2004-05-04 10:41 51°12.063 2°33.888 13.7 112 9 98760 78
2004-05-04 10:42 51°12.088 2°33.967 11.9 109 8.9 98740 77
2004-05-04 10:43 51°12.111 2°34.05 16.2 109 9 98750 79
2004-05-04 10:44 51°12.166 2°34.193 12.2 155 8.9 98750 77
2004-05-04 10:45 51°12.335 2°34.376 7.9 159 8.9 98750 77
2004-05-04 10:46 51°12.545 2°34.605 8.6 139 8.9 98750 77
2004-05-04 10:47 51°12.746 2°34.847 6.3 142 8.9 98740 77
2004-05-04 10:48 51°12.97 2°35.105 6.7 133 8.9 98750 77
2004-05-04 10:49 51°13.173 2°35.356 7.7 138 8.9 98740 79
2004-05-04 10:50 51°13.38 2°35.603 5.3 129 8.9 98740 78
2004-05-04 10:51 51°13.586 2°35.851 9.4 147 8.9 98740 78
2004-05-04 10:52 51°13.786 2°36.092 6.7 153 8.9 98740 78
2004-05-04 10:53 51°13.985 2°36.341 8 147 9 98740 79
2004-05-04 10:54 51°14.192 2°36.589 9.2 146 8.9 98740 77
2004-05-04 10:55 51°14.392 2°36.832 9.8 140 8.9 98730 78
2004-05-04 10:56 51°14.592 2°37.064 4.9 156 8.9 98730 77
2004-05-04 10:57 51°14.801 2°37.27 7.6 173 8.9 98730 77
2004-05-04 10:58 51°15.01 2°37.473 6.8 159 9 98740 79
2004-05-04 10:59 51°15.219 2°37.676 10.4 146 9 98730 78
2004-05-04 11:00 51°15.425 2°37.896 9.5 163 8.8 98730 76
2004-05-04 11:01 51°15.638 2°38.103 8.3 149 8.8 98730 76
2004-05-04 11:02 51°15.865 2°38.266 7.3 167 8.8 98730 77
2004-05-04 11:03 51°16.086 2°38.438 8.7 167 8.8 98710 77
2004-05-04 11:04 51°16.304 2°38.594 9 159 8.8 98720 77
2004-05-04 11:05 51°16.522 2°38.758 10.6 163 8.8 98720 77
2004-05-04 11:06 51°16.748 2°38.922 6.4 148 8.8 98720 77
2004-05-04 11:07 51°16.96 2°39.101 7.8 143 8.9 98710 77
2004-05-04 11:08 51°17.178 2°39.278 8.5 163 8.9 98700 78
2004-05-04 11:09 51°17.4 2°39.446 6.5 179 8.9 98700 78
2004-05-04 11:10 51°17.568 2°39.515 12 162 8.9 98730 78
2004-05-04 11:11 51°17.634 2°39.645 16 103 8.9 98670 77
2004-05-04 11:12 51°17.645 2°39.772 11.6 81 8.9 98680 78
2004-05-04 11:13 51°17.67 2°39.839 13.3 77 8.9 98680 79
2004-05-04 11:14 51°17.673 2°39.94 14.2 45 8.8 98700 78
2004-05-04 11:15 51°17.642 2°40.009 15.6 350 8.9 98720 79
2004-05-04 11:16 51°17.67 2°40.068 15.1 349 8.8 98710 77
2004-05-04 11:17 51°17.7 2°40.123 16.1 341 8.7 98700 77
2004-05-04 11:18 51°17.715 2°40.154 18.1 327 8.7 98700 78
2004-05-04 11:19 51°17.728 2°40.174 18.6 325 8.6 98700 78
2004-05-04 11:20 51°17.733 2°40.191 18.2 341 8.6 98690 78
2004-05-04 11:21 51°17.748 2°40.225 17.1 324 8.6 98680 78
2004-05-04 11:22 51°17.755 2°40.246 15.2 347 8.6 98690 77
2004-05-04 11:23 51°17.742 2°40.272 18.7 4 8.6 98690 77
2004-05-04 11:24 51°17.73 2°40.316 14.8 15 8.7 98710 78
2004-05-04 11:25 51°17.734 2°40.352 15.6 316 8.7 98680 78
2004-05-04 11:26 51°17.741 2°40.346 15.7 311 8.7 98690 79
2004-05-04 11:27 51°17.728 2°40.342 14.8 348 8.7 98680 79
2004-05-04 11:28 51°17.715 2°40.322 17.1 310 8.7 98680 79
2004-05-04 11:29 51°17.703 2°40.29 17.3 331 8.6 98630 78
2004-05-04 11:30 51°17.662 2°40.254 21.9 317 8.7 98620 79
2004-05-04 11:31 51°17.618 2°40.155 20.9 329 8.7 98610 79
2004-05-04 11:32 51°17.577 2°40.091 17.4 336 8.7 98610 79
2004-05-04 11:33 51°17.574 2°40.088 14.3 323 8.6 98630 78
2004-05-04 11:34 51°17.592 2°40.106 15.2 315 8.7 98630 80
2004-05-04 11:35 51°17.575 2°40.059 15.9 336 8.7 98620 80
2004-05-04 11:36 51°17.55 2°40.007 19.5 303 8.7 98610 80
2004-05-04 11:37 51°17.556 2°39.933 13.8 295 8.7 98630 80
2004-05-04 11:38 51°17.58 2°39.856 14.6 272 8.8 98630 80
2004-05-04 11:39 51°17.616 2°39.782 19.1 297 8.7 98620 78
2004-05-04 11:40 51°17.62 2°39.737 16.3 329 8.7 98610 79
2004-05-04 11:41 51°17.588 2°39.699 18.4 340 8.7 98600 79
2004-05-04 11:42 51°17.546 2°39.677 19.2 342 8.7 98610 80
2004-05-04 11:43 51°17.506 2°39.669 19.7 346 8.8 98630 80
2004-05-04 11:44 51°17.473 2°39.646 19.8 336 8.8 98600 80
2004-05-04 11:45 51°17.444 2°39.622 19.9 345 8.7 98590 79
2004-05-04 11:46 51°17.417 2°39.598 17.9 340 8.7 98590 80
2004-05-04 11:47 51°17.392 2°39.573 16.5 336 8.7 98620 81
2004-05-04 11:48 51°17.362 2°39.549 16.7 344 8.7 98600 80
2004-05-04 11:49 51°17.324 2°39.529 16.7 346 8.7 98620 80
2004-05-04 11:50 51°17.288 2°39.504 20.2 347 8.7 98580 80
2004-05-04 11:51 51°17.251 2°39.486 18.2 340 8.7 98610 80
2004-05-04 11:52 51°17.226 2°39.462 17.1 328 8.6 98580 80
2004-05-04 11:53 51°17.206 2°39.438 19.1 320 8.6 98600 81
2004-05-04 11:54 51°17.201 2°39.382 18.7 313 8.5 98590 80
2004-05-04 11:55 51°17.207 2°39.354 15.8 301 8.5 98590 80
2004-05-04 11:56 51°17.228 2°39.369 14.5 297 8.5 98590 80
2004-05-04 11:57 51°17.255 2°39.406 18 275 8.6 98600 82
2004-05-04 11:58 51°17.285 2°39.448 19.1 265 8.6 98590 81
2004-05-04 11:59 51°17.312 2°39.492 18.4 260 8.6 98610 81
2004-05-04 12:00 51°17.333 2°39.482 17.8 324 8.6 98600 81
2004-05-04 12:01 51°17.279 2°39.469 17.3 4 8.6 98580 81
2004-05-04 12:02 51°17.145 2°39.452 20.7 355 8.7 98590 83
2004-05-04 12:03 51°16.993 2°39.415 19.1 2 8.6 98580 82
2004-05-04 12:04 51°16.833 2°39.371 20.6 359 8.7 98570 83
2004-05-04 12:05 51°16.668 2°39.324 21.1 6 8.6 98580 81
2004-05-04 12:06 51°16.472 2°39.291 19.8 1 8.6 98560 82
2004-05-04 12:07 51°16.273 2°39.275 24.7 3 8.6 98570 82
2004-05-04 12:08 51°16.073 2°39.277 22 10 8.6 98560 83
2004-05-04 12:09 51°15.874 2°39.281 22.5 10 8.5 98540 83
2004-05-04 12:10 51°15.676 2°39.281 21.7 15 8.6 98570 84
2004-05-04 12:11 51°15.474 2°39.336 22.5 10 8.6 98570 83
2004-05-04 12:12 51°15.278 2°39.392 24.2 13 8.5 98540 83
2004-05-04 12:13 51°15.08 2°39.451 25.1 16 8.5 98550 84
2004-05-04 12:14 51°14.889 2°39.564 22.4 18 8.4 98530 83
2004-05-04 12:15 51°14.703 2°39.728 21.9 23 8.4 98570 84
2004-05-04 12:16 51°14.523 2°39.915 21.3 28 8.5 98530 84
2004-05-04 12:17 51°14.352 2°40.122 21.7 42 8.6 98500 83
2004-05-04 12:18 51°14.224 2°40.407 20 65 8.6 98480 83
2004-05-04 12:19 51°14.176 2°40.778 18.2 64 8.7 98530 84
2004-05-04 12:20 51°14.176 2°41.172 17.2 81 8.6 98520 85
2004-05-04 12:21 51°14.185 2°41.604 17.7 81 8.5 98490 85
2004-05-04 12:22 51°14.23 2°41.99 18.3 84 8.4 98530 85
2004-05-04 12:23 51°14.282 2°42.383 18.8 83 8.4 98540 86
2004-05-04 12:24 51°14.326 2°42.776 19.3 88 8.4 98540 87
2004-05-04 12:25 51°14.368 2°43.167 17.7 85 8.4 98530 87
2004-05-04 12:26 51°14.413 2°43.564 14.7 80 8.5 98530 87
2004-05-04 12:27 51°14.456 2°43.944 17.2 82 8.5 98540 86
2004-05-04 12:28 51°14.499 2°44.331 15 81 8.5 98540 86
2004-05-04 12:29 51°14.531 2°44.729 15.8 82 8.6 98510 86
2004-05-04 12:30 51°14.564 2°45.127 14.4 81 8.6 98520 86
2004-05-04 12:31 51°14.617 2°45.509 20.6 87 8.6 98530 85
2004-05-04 12:32 51°14.668 2°45.899 15.6 93 8.6 98530 85
2004-05-04 12:33 51°14.702 2°46.277 15.3 68 8.7 98530 85
2004-05-04 12:34 51°14.728 2°46.664 16.3 67 8.6 98520 84
2004-05-04 12:35 51°14.755 2°47.053 15 68 8.6 98510 85
2004-05-04 12:36 51°14.776 2°47.443 15.4 83 8.6 98520 85
2004-05-04 12:37 51°14.806 2°47.851 18.5 86 8.5 98530 86
2004-05-04 12:38 51°14.846 2°48.226 17.1 91 8.6 98530 87
2004-05-04 12:39 51°14.882 2°48.614 18.2 92 8.5 98530 87
2004-05-04 12:40 51°14.912 2°48.995 12.9 75 8.6 98520 87
2004-05-04 12:41 51°14.947 2°49.392 15 86 8.6 98520 86
2004-05-04 12:42 51°14.981 2°49.783 15.4 81 8.6 98530 86
2004-05-04 12:43 51°14.988 2°50.163 13.2 78 8.6 98530 86
2004-05-04 12:44 51°14.993 2°50.539 13.5 75 8.6 98510 87
2004-05-04 12:45 51°15.003 2°50.94 17.4 79 8.6 98510 87
2004-05-04 12:46 51°15.005 2°51.324 16.6 68 8.5 98510 88
2004-05-04 12:47 51°15.01 2°51.71 13.1 77 8.4 98520 88
2004-05-04 12:48 51°15.018 2°52.098 15.8 81 8.4 98500 90
2004-05-04 12:49 51°15.027 2°52.482 12.3 74 8.3 98510 90
2004-05-04 12:50 51°14.994 2°52.847 15.1 42 8.3 98510 91
2004-05-04 12:51 51°14.906 2°53.179 19 52 8.2 98510 91
2004-05-04 12:52 51°14.807 2°53.508 21 52 8.1 98500 91
2004-05-04 12:53 51°14.708 2°53.843 18.3 56 8.1 98500 92
2004-05-04 12:54 51°14.626 2°54.189 16.2 62 8 98490 91
2004-05-04 12:55 51°14.558 2°54.526 16.1 58 8 98500 92
2004-05-04 12:56 51°14.457 2°54.87 17.2 41 8 98500 92